Terminal Aerodrome Forecast
Issued by NWS

Home | Current Version | Previous Version | Text Only | Print | Product List | Glossary Off
Versions: 1 2 3 4 5 6 7 8 9 10 11 12 13 14 15 16 17

508
FTUS42 KMHX 131101 AAC
TAFOAJ
TAF AMD
KOAJ 131101Z 1311/1406 30007KT P6SM SKC
      TEMPO 1311/1312 2SM BR
     FM131400 31011G21KT P6SM SKC
     FM132200 34005KT P6SM SKC
      AMD LTD TO CLD VIS AND WIND=

USA.gov is the U.S. government's official web portal to all federal, state and local government web resources and services.